Time;durP1;ratioP1;P1;durP2;ratioP2;P2;SDS_P1;SDS_P2;PMS_P1;PMS_P2;Temp;Humidity;BMP_temperature;BMP_pressure;BME280_temperature;BME280_humidity;BME280_pressure;Samples;Min_cycle;Max_cycle;Signal;HPM_P1;HPM_P2
2022/11/08 00:01:31;;;;;;;3.40;1.60;;;5.90;99.90;;;;;;4962063;28;20077;-62
2022/11/08 00:04:00;;;;;;;4.38;1.17;;;5.90;99.90;;;;;;4958473;28;20038;-63
2022/11/08 00:14:47;;;;;;;3.92;1.45;;;5.80;99.90;;;;;;4961692;28;20508;-64
2022/11/08 00:17:16;;;;;;;2.00;1.30;;;5.80;99.90;;;;;;4958561;28;20112;-63
2022/11/08 00:19:44;;;;;;;3.50;1.20;;;5.80;99.90;;;;;;4960096;28;20038;-63
2022/11/08 00:22:11;;;;;;;2.72;1.05;;;5.80;99.90;;;;;;4982933;28;20143;-64
2022/11/08 00:24:38;;;;;;;7.00;1.35;;;5.70;99.90;;;;;;4963812;28;20043;-64
2022/11/08 00:27:11;;;;;;;1.85;1.20;;;5.70;99.90;;;;;;4961705;28;20634;-63
2022/11/08 00:29:37;;;;;;;2.60;1.10;;;5.70;99.90;;;;;;4962474;28;20074;-63
2022/11/08 00:32:05;;;;;;;;;;;5.70;99.90;;;;;;4964222;28;20059;-64
2022/11/08 00:34:33;;;;;;;4.07;1.30;;;5.60;99.90;;;;;;4965585;28;19930;-64
2022/11/08 00:37:01;;;;;;;5.32;2.03;;;5.60;99.90;;;;;;4966067;28;20038;-64
2022/11/08 00:39:28;;;;;;;2.17;1.02;;;5.60;99.90;;;;;;4965976;28;20287;-64
2022/11/08 00:41:54;;;;;;;2.08;1.02;;;5.50;99.90;;;;;;4963698;28;20050;-63
2022/11/08 00:44:21;;;;;;;;;;;5.60;99.90;;;;;;4963561;28;20565;-64
2022/11/08 00:46:48;;;;;;;1.48;1.20;;;5.50;99.90;;;;;;4964259;28;19972;-64
2022/11/08 00:49:15;;;;;;;1.42;1.23;;;5.50;99.90;;;;;;4960547;28;20055;-63
2022/11/08 00:51:42;;;;;;;3.30;1.02;;;5.50;99.90;;;;;;4974625;28;20074;-62
2022/11/08 00:54:13;;;;;;;2.88;1.17;;;5.50;99.90;;;;;;4963229;28;20064;-64
2022/11/08 00:56:40;;;;;;;3.25;1.35;;;5.50;99.90;;;;;;4963515;28;20073;-64
2022/11/08 00:59:09;;;;;;;1.92;1.00;;;5.40;99.90;;;;;;4961054;28;20049;-64
2022/11/08 01:01:36;;;;;;;4.40;1.60;;;5.50;99.90;;;;;;4962748;28;20038;-64
2022/11/08 01:04:03;;;;;;;3.28;1.10;;;5.40;99.90;;;;;;4964540;28;20135;-63
2022/11/08 01:06:30;;;;;;;3.50;1.33;;;5.50;99.90;;;;;;4960881;28;20039;-63
2022/11/08 01:08:56;;;;;;;;;;;5.50;99.90;;;;;;4967703;28;20162;-63
2022/11/08 01:11:24;;;;;;;3.10;1.42;;;5.50;99.90;;;;;;4963229;28;19926;-63
2022/11/08 01:13:55;;;;;;;4.15;1.42;;;5.50;99.90;;;;;;4960242;28;20050;-63
2022/11/08 01:16:26;;;;;;;1.70;1.10;;;5.60;99.90;;;;;;4964315;28;20046;-63
2022/11/08 01:18:54;;;;;;;6.68;1.50;;;5.60;99.90;;;;;;4963440;28;20050;-63
2022/11/08 01:21:21;;;;;;;7.57;1.60;;;5.60;99.90;;;;;;4962776;28;20043;-64
2022/11/08 01:23:49;;;;;;;7.20;1.40;;;5.70;99.90;;;;;;4959513;28;20069;-64
2022/11/08 01:26:21;;;;;;;3.90;1.20;;;5.70;99.90;;;;;;4961303;28;20130;-64
2022/11/08 01:28:48;;;;;;;4.78;1.67;;;5.80;99.90;;;;;;4964104;28;20042;-64
2022/11/08 01:31:16;;;;;;;;;;;5.90;99.90;;;;;;4962901;28;20881;-63
2022/11/08 01:33:43;;;;;;;3.25;1.50;;;6.00;99.90;;;;;;4964291;28;19932;-64
2022/11/08 01:36:19;;;;;;;1.42;1.13;;;6.00;99.90;;;;;;4963081;28;20166;-64
2022/11/08 01:38:46;;;;;;;1.35;0.98;;;6.00;99.90;;;;;;4962659;28;20094;-63
2022/11/08 01:41:15;;;;;;;3.22;1.50;;;6.00;99.90;;;;;;4968334;28;20053;-64
2022/11/08 01:43:47;;;;;;;3.30;1.45;;;6.00;99.90;;;;;;4962054;28;20055;-63
2022/11/08 01:46:34;;;;;;;2.15;1.13;;;6.00;99.90;;;;;;4959444;28;20133;-65
2022/11/08 01:49:27;;;;;;;1.57;1.07;;;5.90;99.90;;;;;;4963480;28;20085;-63
2022/11/08 01:52:10;;;;;;;1.58;0.88;;;5.90;99.90;;;;;;4961339;28;20065;-62
2022/11/08 01:54:42;;;;;;;5.30;1.27;;;5.80;99.90;;;;;;4964419;28;20128;-63
2022/11/08 01:57:13;;;;;;;2.67;1.17;;;5.70;99.90;;;;;;4962183;28;20039;-63
2022/11/08 01:59:43;;;;;;;2.08;1.02;;;5.70;99.90;;;;;;4963657;28;20129;-63
2022/11/08 02:02:10;;;;;;;2.67;0.95;;;5.70;99.90;;;;;;4960318;28;20054;-65
2022/11/08 02:04:41;;;;;;;3.80;1.10;;;5.60;99.90;;;;;;4960401;28;20054;-63
2022/11/08 02:07:09;;;;;;;2.65;1.52;;;5.60;99.90;;;;;;4961766;28;20074;-63
2022/11/08 02:09:38;;;;;;;3.95;1.38;;;5.60;99.90;;;;;;4961206;28;20046;-63
2022/11/08 02:12:07;;;;;;;1.67;1.13;;;5.50;99.90;;;;;;4964767;28;20043;-62
2022/11/08 02:14:36;;;;;;;2.60;1.30;;;5.50;99.90;;;;;;4962715;28;20521;-63
2022/11/08 02:17:04;;;;;;;1.65;1.08;;;5.50;99.90;;;;;;4963801;28;20740;-65
2022/11/08 02:19:43;;;;;;;5.97;0.80;;;5.50;99.90;;;;;;4962369;28;20088;-64
2022/11/08 02:22:30;;;;;;;1.45;1.10;;;5.50;99.90;;;;;;4959736;28;20043;-65
2022/11/08 02:25:00;;;;;;;2.33;0.95;;;5.60;99.90;;;;;;4961617;28;20057;-66
2022/11/08 02:27:26;;;;;;;1.45;0.68;;;5.50;99.90;;;;;;4959858;28;20113;-65
2022/11/08 02:29:54;;;;;;;3.10;1.17;;;5.60;99.90;;;;;;4961035;28;20145;-67
2022/11/08 02:32:21;;;;;;;3.33;1.10;;;5.50;99.90;;;;;;4961749;28;20050;-65
2022/11/08 02:34:54;;;;;;;3.92;1.10;;;5.50;99.90;;;;;;4959947;28;20454;-65
2022/11/08 02:37:22;;;;;;;1.23;0.90;;;5.40;99.90;;;;;;4961409;28;20117;-66
2022/11/08 02:39:49;;;;;;;1.90;1.00;;;5.40;99.90;;;;;;4961690;28;20140;-65
2022/11/08 02:42:20;;;;;;;;;;;5.40;99.90;;;;;;4962517;28;20070;-67
2022/11/08 02:44:47;;;;;;;1.90;1.00;;;5.30;99.90;;;;;;4962626;28;20021;-65
2022/11/08 02:47:13;;;;;;;;;;;5.30;99.90;;;;;;4960622;28;20042;-65
2022/11/08 02:49:40;;;;;;;1.40;1.30;;;5.30;99.90;;;;;;4962866;28;20021;-67
2022/11/08 02:52:07;;;;;;;2.60;1.58;;;5.30;99.90;;;;;;4962965;28;20046;-67
2022/11/08 02:54:34;;;;;;;;;;;5.30;99.90;;;;;;4962416;28;20050;-65
2022/11/08 02:57:00;;;;;;;5.10;1.27;;;5.30;99.90;;;;;;4962161;28;19921;-66
2022/11/08 02:59:27;;;;;;;1.90;1.00;;;5.30;99.90;;;;;;4962363;28;20584;-65
2022/11/08 03:01:54;;;;;;;2.67;1.10;;;5.30;99.90;;;;;;4962886;28;20057;-68
2022/11/08 03:04:21;;;;;;;1.55;1.27;;;5.30;99.90;;;;;;4959105;28;20042;-67
2022/11/08 03:06:47;;;;;;;;;;;5.30;99.90;;;;;;4962626;28;20050;-67
2022/11/08 03:09:14;;;;;;;3.55;0.88;;;5.40;99.90;;;;;;4963077;28;19926;-65
2022/11/08 03:11:41;;;;;;;;;;;5.40;99.90;;;;;;4960593;28;20057;-66
2022/11/08 03:14:08;;;;;;;1.30;0.98;;;5.40;99.90;;;;;;4962020;28;20444;-68
2022/11/08 03:16:34;;;;;;;2.72;1.00;;;5.40;99.90;;;;;;4961173;28;20141;-66
2022/11/08 03:19:01;;;;;;;;;;;5.50;99.90;;;;;;4962313;28;20039;-62
2022/11/08 03:21:28;;;;;;;1.08;0.80;;;5.50;99.90;;;;;;4961562;28;19983;-62
2022/11/08 03:23:55;;;;;;;1.08;0.90;;;5.60;99.90;;;;;;4960516;28;20046;-66
2022/11/08 03:26:21;;;;;;;4.35;1.70;;;5.60;99.90;;;;;;4962995;28;20086;-65
2022/11/08 03:28:48;;;;;;;1.98;1.77;;;5.70;99.90;;;;;;4959201;28;20043;-66
2022/11/08 03:31:15;;;;;;;0.93;0.93;;;5.80;99.90;;;;;;4960886;28;20043;-63
2022/11/08 03:33:41;;;;;;;1.23;0.65;;;5.70;99.90;;;;;;4959884;28;20053;-63
2022/11/08 03:36:08;;;;;;;2.30;1.52;;;5.80;99.90;;;;;;4962318;28;20047;-64
2022/11/08 03:38:35;;;;;;;2.10;0.98;;;5.80;99.90;;;;;;4959789;28;20038;-65
2022/11/08 03:41:02;;;;;;;1.42;0.98;;;5.80;99.90;;;;;;4960447;28;20097;-64
2022/11/08 03:43:28;;;;;;;;;;;5.80;99.90;;;;;;4962084;28;20038;-64
2022/11/08 03:45:55;;;;;;;1.80;1.10;;;5.80;99.90;;;;;;4957945;28;19930;-64
2022/11/08 03:48:22;;;;;;;2.00;1.00;;;5.70;99.90;;;;;;4957609;28;20057;-64
2022/11/08 03:50:52;;;;;;;1.70;1.05;;;5.70;99.90;;;;;;4961343;28;20057;-64
2022/11/08 03:53:18;;;;;;;2.20;0.95;;;5.70;99.90;;;;;;4960959;28;20059;-64
2022/11/08 03:55:45;;;;;;;3.30;0.70;;;5.70;99.90;;;;;;4960971;28;20454;-65
2022/11/08 03:58:12;;;;;;;5.72;0.90;;;5.60;99.90;;;;;;4967051;28;20042;-63
2022/11/08 04:00:39;;;;;;;;;;;5.60;99.90;;;;;;4965431;28;20145;-63
2022/11/08 04:03:05;;;;;;;2.17;0.95;;;5.60;99.90;;;;;;4965322;28;19921;-63
2022/11/08 04:05:32;;;;;;;5.78;1.00;;;5.50;99.90;;;;;;4965066;28;20042;-64
2022/11/08 04:08:00;;;;;;;2.63;0.82;;;5.50;99.90;;;;;;4962434;28;20061;-64
2022/11/08 04:10:27;;;;;;;1.02;0.93;;;5.50;99.90;;;;;;4964858;28;20052;-64
2022/11/08 04:15:39;;;;;;;2.55;1.00;;;5.30;99.90;;;;;;4966104;28;20508;-63
2022/11/08 04:23:37;;;;;;;1.20;0.80;;;5.20;99.90;;;;;;4961098;28;20051;-64
2022/11/08 04:26:05;;;;;;;;;;;5.20;99.90;;;;;;4960084;28;20038;-64
2022/11/08 04:28:36;;;;;;;1.23;0.95;;;5.10;99.90;;;;;;4964340;28;19929;-64
2022/11/08 04:31:05;;;;;;;2.45;0.80;;;5.10;99.90;;;;;;4962047;28;20086;-63
2022/11/08 04:33:32;;;;;;;2.05;1.90;;;5.10;99.90;;;;;;4964758;28;20053;-63
2022/11/08 04:36:09;;;;;;;1.73;1.63;;;5.10;99.90;;;;;;4963921;28;20050;-62
2022/11/08 04:38:36;;;;;;;1.40;1.30;;;5.10;99.90;;;;;;4963686;28;20046;-63
2022/11/08 04:41:12;;;;;;;5.15;1.40;;;5.00;99.90;;;;;;4963240;28;20678;-62
2022/11/08 04:43:39;;;;;;;1.98;1.15;;;5.00;99.90;;;;;;4963136;28;20902;-64
2022/11/08 04:46:11;;;;;;;2.70;0.93;;;5.00;99.90;;;;;;4961987;28;20049;-65
2022/11/08 04:48:39;;;;;;;2.25;1.20;;;4.90;99.90;;;;;;4964513;28;20046;-63
2022/11/08 04:51:25;;;;;;;0.63;0.60;;;4.90;99.90;;;;;;4963509;28;20255;-62
2022/11/08 04:53:55;;;;;;;1.33;1.10;;;4.90;99.90;;;;;;4966016;28;20057;-63
2022/11/08 04:56:23;;;;;;;3.95;1.40;;;4.80;99.90;;;;;;4962676;28;20497;-63
2022/11/08 04:58:57;;;;;;;2.00;1.10;;;4.80;99.90;;;;;;4963634;28;20050;-63
2022/11/08 05:01:27;;;;;;;2.83;0.65;;;4.80;99.90;;;;;;4962901;28;20046;-64
2022/11/08 05:03:54;;;;;;;2.70;0.93;;;4.80;99.90;;;;;;4964891;28;20552;-63
2022/11/08 05:06:31;;;;;;;6.15;1.27;;;4.80;99.90;;;;;;4961955;28;20042;-63
2022/11/08 05:08:59;;;;;;;2.08;1.05;;;4.70;99.90;;;;;;4962088;28;20588;-63
2022/11/08 05:11:27;;;;;;;2.90;0.93;;;4.70;99.90;;;;;;4964862;28;20765;-63
2022/11/08 05:13:55;;;;;;;1.10;0.80;;;4.70;99.90;;;;;;4961595;28;20152;-64
2022/11/08 05:16:27;;;;;;;1.33;1.08;;;4.70;99.90;;;;;;4962322;28;20459;-63
2022/11/08 05:18:54;;;;;;;3.72;0.93;;;4.70;99.90;;;;;;4964210;28;20078;-63
2022/11/08 05:24:09;;;;;;;1.90;1.52;;;4.60;99.90;;;;;;4963313;28;20222;-63
2022/11/08 05:26:38;;;;;;;3.88;1.20;;;4.60;99.90;;;;;;4964689;28;20046;-64
2022/11/08 05:29:04;;;;;;;7.47;1.23;;;4.60;99.90;;;;;;4964162;28;20054;-64
2022/11/08 05:31:31;;;;;;;2.63;1.23;;;4.50;99.90;;;;;;4961578;28;20061;-63
2022/11/08 05:34:01;;;;;;;;;;;4.50;99.90;;;;;;4962979;28;20057;-63
2022/11/08 05:36:28;;;;;;;1.63;1.08;;;4.60;99.90;;;;;;4962737;28;20024;-64
2022/11/08 05:38:55;;;;;;;3.35;1.98;;;4.60;99.90;;;;;;4961504;28;20050;-64
2022/11/08 05:41:23;;;;;;;3.40;1.77;;;4.60;99.90;;;;;;4960809;28;20043;-62
2022/11/08 05:43:52;;;;;;;2.38;0.90;;;4.60;99.90;;;;;;4963114;28;20822;-62
2022/11/08 05:46:20;;;;;;;1.05;0.95;;;4.60;99.90;;;;;;4961588;28;20042;-63
2022/11/08 05:48:48;;;;;;;0.82;0.82;;;4.50;99.90;;;;;;4963023;28;20133;-62
2022/11/08 05:51:16;;;;;;;1.48;1.23;;;4.50;99.90;;;;;;4963711;28;20049;-63
2022/11/08 05:53:45;;;;;;;1.38;1.00;;;4.50;99.90;;;;;;4962902;28;20136;-63
2022/11/08 05:56:12;;;;;;;1.38;1.17;;;4.40;99.90;;;;;;4961016;28;20169;-63
2022/11/08 05:58:39;;;;;;;1.20;1.10;;;4.30;99.90;;;;;;4960297;28;20049;-63
2022/11/08 06:01:08;;;;;;;3.53;1.10;;;4.30;99.90;;;;;;4964028;28;21061;-63
2022/11/08 06:03:35;;;;;;;1.98;1.23;;;4.20;99.90;;;;;;4960711;28;20057;-62
2022/11/08 06:06:08;;;;;;;3.97;1.40;;;4.20;99.90;;;;;;4962344;28;20419;-63
2022/11/08 06:08:35;;;;;;;4.50;1.20;;;4.20;99.90;;;;;;4963251;28;20113;-63
2022/11/08 06:11:10;;;;;;;1.70;1.48;;;4.20;99.90;;;;;;4962273;28;20050;-63
2022/11/08 06:13:36;;;;;;;3.13;1.40;;;4.30;99.90;;;;;;4959454;28;20824;-63
2022/11/08 06:16:06;;;;;;;1.60;1.50;;;4.30;99.90;;;;;;4963050;28;20053;-64
2022/11/08 06:18:33;;;;;;;1.85;1.35;;;4.30;99.90;;;;;;4960967;28;20047;-63
2022/11/08 06:21:02;;;;;;;2.97;1.10;;;4.30;99.90;;;;;;4961807;28;20137;-62
2022/11/08 06:23:30;;;;;;;3.35;1.30;;;4.30;99.90;;;;;;4960801;28;20042;-62
2022/11/08 06:25:57;;;;;;;3.67;1.30;;;4.40;99.90;;;;;;4963424;28;20050;-62
2022/11/08 06:28:24;;;;;;;1.70;1.15;;;4.40;99.90;;;;;;4960540;28;20505;-63
2022/11/08 06:30:51;;;;;;;;;;;4.50;99.90;;;;;;4959180;28;20713;-62
2022/11/08 06:33:18;;;;;;;2.22;1.25;;;4.50;99.90;;;;;;4960584;28;19968;-63
2022/11/08 06:35:46;;;;;;;2.15;1.60;;;4.60;99.90;;;;;;4962686;28;20042;-63
2022/11/08 06:38:13;;;;;;;6.63;1.65;;;4.60;99.90;;;;;;4960609;28;20559;-63
2022/11/08 06:40:40;;;;;;;2.35;1.65;;;4.70;99.90;;;;;;4958308;28;20053;-63
2022/11/08 06:43:06;;;;;;;;;;;4.70;99.90;;;;;;4960561;28;20082;-63
2022/11/08 06:45:36;;;;;;;2.45;1.10;;;4.80;99.90;;;;;;4959441;28;19926;-63
2022/11/08 06:48:05;;;;;;;2.58;1.40;;;4.90;99.90;;;;;;4960712;28;20145;-63
2022/11/08 06:50:33;;;;;;;1.67;1.30;;;5.10;99.90;;;;;;4960904;28;20050;-63
2022/11/08 06:53:06;;;;;;;11.43;1.92;;;5.30;99.90;;;;;;4961852;28;20645;-63
2022/11/08 06:55:34;;;;;;;2.70;1.50;;;5.70;99.90;;;;;;4956198;28;20077;-62
2022/11/08 06:58:01;;;;;;;3.72;1.58;;;5.90;99.90;;;;;;4960428;28;20137;-62
2022/11/08 07:00:29;;;;;;;7.10;1.30;;;6.20;99.90;;;;;;4959135;28;20452;-63
2022/11/08 07:02:58;;;;;;;1.35;0.95;;;6.40;99.90;;;;;;4962808;28;20046;-64
2022/11/08 07:05:26;;;;;;;2.22;1.92;;;6.60;99.90;;;;;;4962430;28;20039;-64
2022/11/08 07:07:53;;;;;;;3.90;1.90;;;6.80;99.90;;;;;;4962951;28;20509;-62
2022/11/08 07:10:21;;;;;;;;;;;7.00;99.90;;;;;;4962111;28;20132;-62
2022/11/08 07:12:49;;;;;;;5.45;1.90;;;7.20;99.90;;;;;;4960684;28;19932;-63
2022/11/08 07:15:16;;;;;;;3.40;2.38;;;7.30;99.90;;;;;;4960445;28;20080;-63
2022/11/08 07:17:43;;;;;;;;;;;7.30;99.90;;;;;;4961831;28;20046;-62
2022/11/08 07:20:10;;;;;;;8.63;1.77;;;7.20;99.90;;;;;;4960770;28;19958;-64
2022/11/08 07:22:37;;;;;;;5.43;1.88;;;7.20;99.90;;;;;;4961093;28;20042;-56
2022/11/08 07:25:04;;;;;;;;;;;7.20;99.90;;;;;;4960471;28;20060;-53
2022/11/08 07:27:30;;;;;;;4.75;2.47;;;7.10;99.90;;;;;;4961692;28;19962;-57
2022/11/08 07:29:57;;;;;;;1.73;1.52;;;7.00;99.90;;;;;;4962689;28;20460;-57
2022/11/08 07:32:24;;;;;;;;;;;6.90;99.90;;;;;;4968169;28;20129;-56
2022/11/08 07:34:50;;;;;;;2.22;1.42;;;6.90;99.90;;;;;;4963568;28;19949;-56
2022/11/08 07:37:17;;;;;;;3.50;1.88;;;6.80;99.90;;;;;;4964343;28;20128;-56
2022/11/08 07:39:44;;;;;;;;;;;6.70;99.90;;;;;;4967520;28;20188;-55
2022/11/08 07:42:11;;;;;;;4.13;1.95;;;6.70;99.90;;;;;;4964270;28;19932;-55
2022/11/08 07:44:39;;;;;;;2.80;1.95;;;6.70;99.90;;;;;;4962879;28;20561;-55
2022/11/08 07:47:06;;;;;;;5.68;2.00;;;6.70;99.90;;;;;;4966071;28;20566;-54
2022/11/08 07:49:34;;;;;;;;;;;6.70;99.90;;;;;;4964154;28;20178;-56
2022/11/08 07:52:01;;;;;;;3.13;2.33;;;7.00;99.90;;;;;;4966145;28;19926;-55
2022/11/08 07:54:28;;;;;;;8.35;2.50;;;7.40;99.90;;;;;;4966134;28;20520;-55
2022/11/08 07:56:54;;;;;;;5.50;2.55;;;7.80;99.90;;;;;;4965118;28;20042;-55
2022/11/08 07:59:21;;;;;;;4.68;2.10;;;8.40;99.90;;;;;;4963201;28;20057;-55
2022/11/08 08:01:48;;;;;;;6.03;2.80;;;8.80;99.90;;;;;;4960400;28;20697;-54
2022/11/08 08:04:15;;;;;;;;;;;9.10;99.90;;;;;;4963515;28;20035;-53
2022/11/08 08:06:41;;;;;;;5.85;2.63;;;9.40;99.90;;;;;;4964751;28;19933;-55
2022/11/08 08:09:08;;;;;;;;;;;9.70;99.90;;;;;;4966096;28;20054;-54
2022/11/08 08:11:35;;;;;;;10.00;3.25;;;10.00;99.90;;;;;;4962633;28;20025;-53
2022/11/08 08:14:01;;;;;;;6.72;3.10;;;10.30;99.90;;;;;;4961155;28;20165;-55
2022/11/08 08:16:28;;;;;;;12.48;4.18;;;10.50;99.90;;;;;;4962016;28;20052;-55
2022/11/08 08:18:56;;;;;;;;;;;10.70;99.90;;;;;;4963820;28;20106;-55
2022/11/08 08:21:22;;;;;;;4.97;3.22;;;10.90;99.90;;;;;;4958017;28;20564;-53
2022/11/08 08:23:49;;;;;;;;;;;11.20;99.90;;;;;;4962889;28;20054;-54
2022/11/08 08:26:16;;;;;;;4.25;2.78;;;11.50;99.90;;;;;;4958831;28;19926;-56
2022/11/08 08:28:42;;;;;;;;;;;11.80;99.90;;;;;;4962593;28;20055;-57
2022/11/08 08:31:09;;;;;;;6.57;2.15;;;12.10;99.90;;;;;;4962141;28;19957;-59
2022/11/08 08:33:36;;;;;;;;;;;12.20;99.90;;;;;;4963212;28;20051;-53
2022/11/08 08:36:04;;;;;;;4.10;1.98;;;12.50;99.90;;;;;;4978055;28;19922;-55
2022/11/08 08:38:32;;;;;;;13.40;2.20;;;12.90;99.90;;;;;;4962830;28;20397;-53
2022/11/08 08:41:00;;;;;;;3.92;2.50;;;13.20;99.90;;;;;;4963309;28;20224;-55
2022/11/08 08:43:28;;;;;;;1.92;1.73;;;13.50;99.90;;;;;;4960831;28;20122;-55
2022/11/08 08:45:59;;;;;;;2.80;1.70;;;13.60;99.90;;;;;;4962569;28;20145;-55
2022/11/08 08:48:26;;;;;;;4.07;1.65;;;13.90;99.90;;;;;;4963277;28;20119;-60
2022/11/08 08:50:53;;;;;;;3.35;1.95;;;14.20;99.90;;;;;;4959190;28;20561;-56
2022/11/08 08:53:19;;;;;;;4.05;1.83;;;14.40;98.00;;;;;;4962238;28;20076;-54
2022/11/08 08:55:47;;;;;;;4.43;1.83;;;14.60;96.60;;;;;;4960666;28;20043;-57
2022/11/08 08:58:14;;;;;;;4.03;1.63;;;14.80;96.80;;;;;;4960453;28;20053;-55
2022/11/08 09:00:42;;;;;;;6.72;2.25;;;15.00;95.90;;;;;;4963728;28;20698;-54
2022/11/08 09:03:29;;;;;;;4.22;3.03;;;15.10;94.60;;;;;;4962456;28;20050;-55
2022/11/08 09:05:57;;;;;;;2.95;2.05;;;15.10;93.80;;;;;;4962857;28;20066;-54
2022/11/08 09:08:24;;;;;;;2.42;1.70;;;15.10;92.80;;;;;;4961145;28;20054;-54
2022/11/08 09:10:55;;;;;;;7.95;2.75;;;15.00;92.20;;;;;;4961124;28;20051;-54
2022/11/08 09:13:25;;;;;;;11.52;2.35;;;15.00;94.10;;;;;;4961567;28;20803;-55
2022/11/08 09:15:52;;;;;;;4.03;2.35;;;15.20;94.60;;;;;;4960556;28;20116;-55
2022/11/08 09:18:19;;;;;;;5.70;1.95;;;15.50;94.70;;;;;;4960262;28;20057;-54
2022/11/08 09:20:46;;;;;;;2.40;1.75;;;15.90;91.10;;;;;;4925135;28;1082684;-56
2022/11/08 09:23:15;;;;;;;;;;;16.20;88.20;;;;;;4961125;28;20232;-57
2022/11/08 09:25:42;;;;;;;3.42;2.15;;;16.60;83.70;;;;;;4959721;28;19925;-56
2022/11/08 09:28:09;;;;;;;;;;;16.90;81.70;;;;;;4964968;28;20533;-56
2022/11/08 09:30:36;;;;;;;2.05;1.80;;;17.10;75.40;;;;;;4960594;28;20785;-56
2022/11/08 09:33:04;;;;;;;11.65;2.53;;;17.10;71.80;;;;;;4961817;28;20057;-55
2022/11/08 09:35:30;;;;;;;7.20;2.30;;;17.00;71.20;;;;;;4961714;28;20050;-56
2022/11/08 09:37:57;;;;;;;;;;;16.90;68.70;;;;;;4963042;28;20048;-56
2022/11/08 09:40:31;;;;;;;6.78;2.58;;;16.60;68.80;;;;;;4964758;28;19926;-56
2022/11/08 09:43:05;;;;;;;3.10;1.88;;;16.40;69.50;;;;;;4965501;28;20046;-55
2022/11/08 09:45:44;;;;;;;6.50;2.08;;;16.10;68.50;;;;;;4963351;28;20046;-55
2022/11/08 09:48:36;;;;;;;4.82;2.50;;;15.80;71.00;;;;;;4964712;28;20738;-56
2022/11/08 09:51:08;;;;;;;5.53;2.20;;;15.60;70.90;;;;;;4961050;28;20080;-55
2022/11/08 09:53:56;;;;;;;3.90;2.13;;;15.70;73.10;;;;;;4977200;28;20141;-59
2022/11/08 09:56:31;;;;;;;5.20;2.17;;;15.90;70.50;;;;;;4963905;28;20118;-56
2022/11/08 09:59:24;;;;;;;3.83;2.03;;;16.30;70.20;;;;;;4973764;28;20129;-57
2022/11/08 10:01:50;;;;;;;5.55;2.70;;;16.60;65.80;;;;;;4958418;28;20154;-57
2022/11/08 10:04:22;;;;;;;5.55;2.28;;;17.10;64.60;;;;;;4960195;28;20043;-59
2022/11/08 10:07:01;;;;;;;4.72;1.88;;;17.50;63.70;;;;;;4959721;28;20574;-57
2022/11/08 10:10:02;;;;;;;3.88;2.22;;;17.80;59.60;;;;;;4960029;28;20102;-59
2022/11/08 10:12:51;;;;;;;3.88;1.70;;;18.20;59.60;;;;;;4959950;28;20655;-57
2022/11/08 10:15:40;;;;;;;9.27;1.88;;;18.60;59.10;;;;;;4961528;28;20654;-56
2022/11/08 10:18:30;;;;;;;16.45;2.72;;;19.00;55.80;;;;;;4963308;28;20110;-58
2022/11/08 10:21:42;;;;;;;2.78;1.65;;;19.20;56.60;;;;;;4959762;28;20212;-57
2022/11/08 10:24:15;;;;;;;2.10;1.83;;;19.50;54.80;;;;;;4949997;28;20109;-60
2022/11/08 10:26:45;;;;;;;4.60;2.00;;;19.80;54.70;;;;;;4960631;28;20078;-58
2022/11/08 10:29:20;;;;;;;2.13;1.60;;;20.00;53.90;;;;;;4961098;28;20043;-58
2022/11/08 10:31:52;;;;;;;3.67;1.52;;;20.20;53.90;;;;;;4966798;28;20499;-59
2022/11/08 10:34:23;;;;;;;2.08;1.40;;;20.10;53.20;;;;;;4963240;28;20107;-64
2022/11/08 10:36:57;;;;;;;3.75;1.40;;;20.20;52.30;;;;;;4959540;28;20509;-58
2022/11/08 10:39:31;;;;;;;1.95;1.45;;;20.20;52.20;;;;;;4961115;28;20145;-56
2022/11/08 10:42:06;;;;;;;1.55;1.23;;;20.50;51.90;;;;;;4960782;28;20050;-56
2022/11/08 10:44:34;;;;;;;1.33;1.17;;;20.70;51.70;;;;;;4963981;28;20200;-54
2022/11/08 10:47:05;;;;;;;2.33;1.10;;;20.90;49.70;;;;;;4961806;28;20358;-55
2022/11/08 10:49:40;;;;;;;6.20;1.40;;;21.10;49.30;;;;;;4959178;28;20061;-56
2022/11/08 10:52:10;;;;;;;7.05;1.65;;;21.40;48.00;;;;;;4961214;28;20051;-56
2022/11/08 10:54:54;;;;;;;3.33;1.25;;;21.50;47.30;;;;;;4957231;28;20125;-56
2022/11/08 10:57:30;;;;;;;2.00;1.25;;;21.70;48.00;;;;;;4967597;28;20510;-58
2022/11/08 11:00:17;;;;;;;9.65;1.50;;;21.80;46.60;;;;;;4959399;28;20145;-57
2022/11/08 11:02:45;;;;;;;1.98;1.10;;;22.00;44.90;;;;;;4958077;28;20037;-57
2022/11/08 11:05:15;;;;;;;1.33;0.90;;;22.10;44.90;;;;;;4961457;28;20452;-57
2022/11/08 11:08:03;;;;;;;2.80;1.13;;;22.20;45.70;;;;;;4959690;28;20457;-59
2022/11/08 11:10:49;;;;;;;1.92;1.02;;;22.40;45.60;;;;;;4956654;28;20433;-58
2022/11/08 11:13:21;;;;;;;3.05;1.20;;;22.60;45.70;;;;;;4961584;28;20046;-56
2022/11/08 11:15:56;;;;;;;2.88;1.20;;;22.70;43.00;;;;;;4959758;28;20077;-59
2022/11/08 11:18:30;;;;;;;2.17;1.02;;;22.70;42.90;;;;;;4961528;28;20629;-59
2022/11/08 11:21:22;;;;;;;3.55;1.00;;;22.50;42.80;;;;;;4960020;28;20130;-59
2022/11/08 11:23:54;;;;;;;2.63;1.13;;;22.20;41.90;;;;;;4969123;28;20085;-59
2022/11/08 11:26:29;;;;;;;2.05;1.50;;;21.80;41.90;;;;;;4958854;28;20050;-59
2022/11/08 11:29:01;;;;;;;6.80;1.60;;;21.40;44.00;;;;;;4961700;28;20054;-57
2022/11/08 11:31:29;;;;;;;1.45;1.25;;;21.00;43.60;;;;;;4959496;28;20549;-57
2022/11/08 11:33:56;;;;;;;1.08;1.00;;;20.60;44.10;;;;;;4960137;28;20053;-57
2022/11/08 11:36:27;;;;;;;1.30;1.10;;;20.20;45.50;;;;;;4961576;28;20092;-57
2022/11/08 11:39:04;;;;;;;2.88;1.52;;;19.90;48.90;;;;;;4962799;28;20057;-58
2022/11/08 11:41:36;;;;;;;;;;;19.80;49.40;;;;;;4959110;28;20049;-58
2022/11/08 11:44:19;;;;;;;1.13;1.02;;;19.70;49.90;;;;;;4959177;28;19965;-60
2022/11/08 11:47:01;;;;;;;1.65;1.10;;;19.70;50.00;;;;;;4960671;28;20611;-55
2022/11/08 11:49:29;;;;;;;2.13;1.38;;;19.80;49.10;;;;;;4978058;28;20054;-60
2022/11/08 11:51:57;;;;;;;2.95;1.08;;;19.80;49.20;;;;;;4958706;28;20046;-57
2022/11/08 11:54:29;;;;;;;1.10;0.98;;;19.70;48.80;;;;;;4960434;28;20046;-58
2022/11/08 11:57:12;;;;;;;2.17;1.35;;;19.70;49.10;;;;;;4958358;28;20328;-60
2022/11/08 11:59:53;;;;;;;2.38;1.42;;;19.80;48.30;;;;;;4961889;28;20321;-58
2022/11/08 12:02:46;;;;;;;4.65;1.20;;;19.80;49.20;;;;;;4959104;28;20278;-56
2022/11/08 12:05:37;;;;;;;2.65;1.20;;;20.00;48.60;;;;;;4954350;28;20035;-55
2022/11/08 12:08:33;;;;;;;2.53;1.02;;;19.90;46.70;;;;;;4960828;28;20066;-53
2022/11/08 12:11:04;;;;;;;2.55;1.27;;;19.80;46.90;;;;;;4958218;28;20100;-57
2022/11/08 12:13:39;;;;;;;1.25;1.15;;;19.90;45.90;;;;;;4961984;28;20081;-56
2022/11/08 12:16:18;;;;;;;1.30;0.90;;;20.00;46.30;;;;;;4962375;28;20050;-54
2022/11/08 12:19:19;;;;;;;3.55;1.00;;;20.20;46.10;;;;;;4963840;28;20053;-58
2022/11/08 12:22:02;;;;;;;1.70;1.27;;;20.30;45.80;;;;;;4975152;28;20058;-58
2022/11/08 12:25:04;;;;;;;1.38;1.08;;;20.30;46.10;;;;;;4961388;28;20050;-56
2022/11/08 12:27:45;;;;;;;3.80;1.10;;;20.20;46.40;;;;;;4961355;28;20317;-58
2022/11/08 12:30:19;;;;;;;2.63;1.10;;;20.20;46.50;;;;;;4961420;28;20058;-57
2022/11/08 12:33:05;;;;;;;2.50;1.25;;;20.20;46.00;;;;;;4963329;28;20456;-56
2022/11/08 12:35:50;;;;;;;5.18;1.25;;;20.40;46.50;;;;;;4961491;28;20051;-59
2022/11/08 12:38:31;;;;;;;1.45;1.00;;;20.50;47.70;;;;;;4964772;28;20051;-58
2022/11/08 12:41:21;;;;;;;1.85;1.20;;;20.50;47.10;;;;;;4962148;28;20125;-57
2022/11/08 12:44:25;;;;;;;3.80;1.10;;;20.50;48.20;;;;;;4960819;28;20039;-56
2022/11/08 12:47:22;;;;;;;2.03;0.93;;;20.30;49.40;;;;;;4964059;28;20133;-58
2022/11/08 12:50:08;;;;;;;0.80;0.80;;;20.00;50.50;;;;;;4964127;28;20183;-54
2022/11/08 12:53:12;;;;;;;1.60;1.10;;;19.70;52.00;;;;;;4963033;28;20134;-55
2022/11/08 12:55:42;;;;;;;1.90;0.80;;;19.40;53.80;;;;;;4961990;28;20121;-57
2022/11/08 12:58:23;;;;;;;2.70;1.35;;;19.10;54.60;;;;;;4970583;28;20444;-56
2022/11/08 13:00:55;;;;;;;1.48;1.20;;;18.90;54.80;;;;;;4961901;28;20042;-56
2022/11/08 13:03:38;;;;;;;1.27;0.90;;;18.70;55.90;;;;;;4959281;28;20526;-57
2022/11/08 13:06:19;;;;;;;1.77;1.05;;;18.70;58.20;;;;;;4960400;28;20093;-56
2022/11/08 13:09:11;;;;;;;5.38;1.00;;;18.80;56.50;;;;;;4962331;28;20125;-56
2022/11/08 13:12:00;;;;;;;7.13;1.50;;;18.80;56.00;;;;;;4964626;28;20042;-56
2022/11/08 13:14:27;;;;;;;2.42;0.95;;;18.90;57.10;;;;;;4961883;28;20126;-54
2022/11/08 13:17:16;;;;;;;4.38;1.23;;;19.20;57.20;;;;;;4962731;28;20038;-56
2022/11/08 13:19:46;;;;;;;4.53;1.40;;;19.50;55.10;;;;;;4959156;28;20350;-57
2022/11/08 13:22:27;;;;;;;1.85;1.15;;;19.80;53.90;;;;;;4962435;28;20061;-55
2022/11/08 13:25:17;;;;;;;2.95;1.27;;;20.10;52.70;;;;;;4961072;28;20043;-56
2022/11/08 13:27:45;;;;;;;3.33;1.17;;;20.30;52.00;;;;;;4955311;28;20078;-54
2022/11/08 13:30:15;;;;;;;6.38;1.63;;;20.50;54.00;;;;;;4960508;28;20488;-57
2022/11/08 13:32:41;;;;;;;20.33;2.20;;;20.70;54.10;;;;;;4963409;28;20408;-55
2022/11/08 13:35:17;;;;;;;9.40;2.08;;;21.00;53.40;;;;;;4962497;28;20612;-55
2022/11/08 13:38:02;;;;;;;3.60;1.20;;;21.00;50.80;;;;;;4963130;28;20038;-57
2022/11/08 13:41:03;;;;;;;2.47;1.00;;;21.00;50.80;;;;;;4960840;28;20050;-56
2022/11/08 13:43:32;;;;;;;3.30;0.98;;;20.70;53.00;;;;;;4962126;28;20516;-55